Time;durP1;ratioP1;P1;durP2;ratioP2;P2;SDS_P1;SDS_P2;PMS_P1;PMS_P2;Temp;Humidity;BMP_temperature;BMP_pressure;BME280_temperature;BME280_humidity;BME280_pressure;Samples;Min_cycle;Max_cycle;Signal;HPM_P1;HPM_P2
2022/04/13 00:00:32;;;;;;;;;;;;;;;17.63;45.85;101221.59;5057399;28;1094;-62
2022/04/13 00:02:58;;;;;;;;;;;;;;;17.63;45.71;101221.59;5075958;28;881;-62
2022/04/13 00:05:23;;;;;;;;;;;;;;;17.70;45.71;101227.69;5075291;28;777;-62
2022/04/13 00:07:49;;;;;;;;;;;;;;;17.74;45.68;101228.78;5056765;28;1085;-62
2022/04/13 00:10:14;;;;;;;;;;;;;;;17.74;45.74;101217.78;5069569;28;831;-62
2022/04/13 00:12:40;;;;;;;;;;;;;;;17.69;45.93;101215.00;5075335;28;807;-62
2022/04/13 00:15:06;;;;;;;;;;;;;;;17.69;45.91;101220.53;5075055;28;862;-62
2022/04/13 00:17:31;;;;;;;;;;;;;;;17.70;45.83;101213.94;5075629;28;1964;-61
2022/04/13 00:19:57;;;;;;;;;;;;;;;17.70;45.94;101215.88;5075263;28;829;-62
2022/04/13 00:22:23;;;;;;;;;;;;;;;17.69;45.70;101217.78;5075832;28;886;-62
2022/04/13 00:24:48;;;;;;;;;;;;;;;17.64;45.74;101212.25;5056306;28;864;-61
2022/04/13 00:27:13;;;;;;;;;;;;;;;17.67;45.85;101211.72;5075622;28;719;-62
2022/04/13 00:29:39;;;;;;;;;;;;;;;17.69;45.70;101214.19;5075333;28;835;-61
2022/04/13 00:32:04;;;;;;;;;;;;;;;17.71;45.79;101207.34;5069296;28;837;-61
2022/04/13 00:34:30;;;;;;;;;;;;;;;17.73;45.79;101223.56;5075435;28;825;-61
2022/04/13 00:36:57;;;;;;;;;;;;;;;17.69;45.78;101222.44;5074370;28;1910;-62
2022/04/13 00:39:23;;;;;;;;;;;;;;;17.63;45.62;101210.59;5073530;28;962;-61
2022/04/13 00:41:54;;;;;;;;;;;;;;;17.61;45.80;101212.78;5077754;28;791;-61
2022/04/13 00:44:20;;;;;;;;;;;;;;;17.55;46.01;101206.44;5075558;28;834;-62
2022/04/13 00:46:46;;;;;;;;;;;;;;;17.50;46.07;101202.84;5079316;28;791;-61
2022/04/13 00:49:11;;;;;;;;;;;;;;;17.53;45.63;101207.81;5078783;28;834;-61
2022/04/13 00:51:36;;;;;;;;;;;;;;;17.46;45.80;101210.84;5057448;28;1258;-61
2022/04/13 00:54:02;;;;;;;;;;;;;;;17.53;45.85;101211.41;5078291;28;832;-61
2022/04/13 00:56:29;;;;;;;;;;;;;;;17.49;45.65;101204.78;5060756;28;1971;-61
2022/04/13 00:59:05;;;;;;;;;;;;;;;17.50;45.70;101211.09;5078347;28;849;-61
2022/04/13 01:01:30;;;;;;;;;;;;;;;17.50;45.63;101213.84;5081121;28;976;-60
2022/04/13 01:03:56;;;;;;;;;;;;;;;17.57;45.66;101211.66;5078964;28;816;-60
2022/04/13 01:06:21;;;;;;;;;;;;;;;17.58;45.53;101207.84;5078720;28;749;-61
2022/04/13 01:08:49;;;;;;;;;;;;;;;17.60;45.81;101208.41;5076069;28;842;-61
2022/04/13 01:11:15;;;;;;;;;;;;;;;17.60;45.55;101222.97;5077400;28;856;-60
2022/04/13 01:13:41;;;;;;;;;;;;;;;17.62;45.69;101218.00;5078367;28;795;-61
2022/04/13 01:16:06;;;;;;;;;;;;;;;17.66;45.31;101215.56;5078261;28;1288;-61
2022/04/13 01:18:32;;;;;;;;;;;;;;;17.65;45.45;101213.91;5078287;28;1972;-61
2022/04/13 01:20:57;;;;;;;;;;;;;;;17.66;45.49;101209.25;5078254;28;897;-60
2022/04/13 01:23:23;;;;;;;;;;;;;;;17.65;45.54;101207.59;5072340;28;778;-60
2022/04/13 01:25:53;;;;;;;;;;;;;;;17.69;45.47;101209.50;5074439;28;863;-61
2022/04/13 01:28:18;;;;;;;;;;;;;;;17.68;45.41;101205.09;5078280;28;738;-61
2022/04/13 01:30:44;;;;;;;;;;;;;;;17.69;45.63;101208.69;5078250;28;915;-61
2022/04/13 01:33:09;;;;;;;;;;;;;;;17.72;45.51;101205.41;5078064;28;807;-61
2022/04/13 01:35:35;;;;;;;;;;;;;;;17.71;45.36;101212.84;5075907;28;797;-60
2022/04/13 01:38:00;;;;;;;;;;;;;;;17.73;45.30;101210.63;5077898;28;1910;-61
2022/04/13 01:40:25;;;;;;;;;;;;;;;17.74;45.33;101206.78;5075864;28;863;-61
2022/04/13 01:42:51;;;;;;;;;;;;;;;17.70;45.50;101202.09;5077650;28;962;-61
2022/04/13 01:45:19;;;;;;;;;;;;;;;17.69;45.34;101201.25;5078031;28;774;-62
2022/04/13 01:47:48;;;;;;;;;;;;;;;17.66;45.40;101204.56;5054313;28;809;-60
2022/04/13 01:50:14;;;;;;;;;;;;;;;17.64;45.48;101204.00;5074472;28;924;-59
2022/04/13 01:52:40;;;;;;;;;;;;;;;17.62;45.54;101201.50;5077717;28;782;-60
2022/04/13 01:55:05;;;;;;;;;;;;;;;17.64;45.54;101205.94;5071106;28;898;-60
2022/04/13 01:57:31;;;;;;;;;;;;;;;17.58;45.75;101202.34;5077704;28;1975;-60
2022/04/13 01:59:56;;;;;;;;;;;;;;;17.59;45.46;101193.81;5075366;28;830;-60
2022/04/13 02:02:22;;;;;;;;;;;;;;;17.67;45.42;101195.22;5077083;28;1141;-60
2022/04/13 02:04:48;;;;;;;;;;;;;;;17.60;45.43;101205.66;5077378;28;814;-62
2022/04/13 02:07:14;;;;;;;;;;;;;;;17.66;45.56;101210.06;5078175;28;907;-62
2022/04/13 02:09:39;;;;;;;;;;;;;;;17.65;45.66;101207.59;5076189;28;885;-62
2022/04/13 02:12:05;;;;;;;;;;;;;;;17.72;45.50;101217.22;5077562;28;846;-62
2022/04/13 02:14:30;;;;;;;;;;;;;;;17.69;45.42;101220.53;5072002;28;837;-61
2022/04/13 02:16:55;;;;;;;;;;;;;;;17.71;45.51;101212.00;5077070;28;1959;-60
2022/04/13 02:19:21;;;;;;;;;;;;;;;17.65;45.43;101210.34;5076872;28;831;-60
2022/04/13 02:21:46;;;;;;;;;;;;;;;17.57;45.34;101200.66;5077394;28;813;-60
2022/04/13 02:24:12;;;;;;;;;;;;;;;17.48;45.22;101202.31;5076069;28;890;-61
2022/04/13 02:26:37;;;;;;;;;;;;;;;17.44;45.27;101191.00;5075403;28;774;-60
2022/04/13 02:29:03;;;;;;;;;;;;;;;17.43;45.15;101208.59;5059123;28;1202;-61
2022/04/13 02:31:28;;;;;;;;;;;;;;;17.34;45.34;101224.78;5077215;28;882;-60
2022/04/13 02:33:55;;;;;;;;;;;;;;;17.36;45.54;101228.09;5076535;28;747;-62
2022/04/13 02:36:21;;;;;;;;;;;;;;;17.36;45.54;101230.00;5076913;28;800;-61
2022/04/13 02:38:46;;;;;;;;;;;;;;;17.31;45.29;101225.31;5071158;28;1906;-61
2022/04/13 02:41:12;;;;;;;;;;;;;;;17.29;45.17;101224.75;5075312;28;970;-61
2022/04/13 02:43:38;;;;;;;;;;;;;;;17.31;44.99;101224.50;5075916;28;866;-61
2022/04/13 02:46:03;;;;;;;;;;;;;;;17.32;45.08;101226.13;5075840;28;934;-62
2022/04/13 02:48:29;;;;;;;;;;;;;;;17.28;45.26;101223.94;5076589;28;778;-62
2022/04/13 02:50:56;;;;;;;;;;;;;;;17.31;45.47;101227.25;5074603;28;1047;-59
2022/04/13 02:53:22;;;;;;;;;;;;;;;17.27;45.30;101232.44;5076791;28;993;-60
2022/04/13 02:55:48;;;;;;;;;;;;;;;17.27;45.55;101235.19;5069859;28;933;-60
2022/04/13 02:58:13;;;;;;;;;;;;;;;17.23;45.53;101223.09;5075794;28;1910;-60
2022/04/13 03:00:39;;;;;;;;;;;;;;;17.27;45.29;101232.44;5057810;28;1274;-58
2022/04/13 03:03:04;;;;;;;;;;;;;;;17.24;45.37;101230.25;5076114;28;798;-58
2022/04/13 03:05:30;;;;;;;;;;;;;;;17.28;45.24;101236.84;5071881;28;821;-59
2022/04/13 03:07:55;;;;;;;;;;;;;;;17.28;45.68;101242.34;5074813;28;1871;-58
2022/04/13 03:10:21;;;;;;;;;;;;;;;17.24;45.29;101236.56;5072587;28;860;-58
2022/04/13 03:12:46;;;;;;;;;;;;;;;17.17;45.36;101243.41;5076553;28;870;-58
2022/04/13 03:15:12;;;;;;;;;;;;;;;17.19;45.38;101243.94;5076253;28;854;-58
2022/04/13 03:17:38;;;;;;;;;;;;;;;17.14;45.75;101241.16;5075106;28;1905;-60
2022/04/13 03:20:03;;;;;;;;;;;;;;;17.21;45.63;101250.00;5075648;28;1437;-60
2022/04/13 03:22:29;;;;;;;;;;;;;;;17.30;45.44;101255.81;5075423;28;1155;-60
2022/04/13 03:24:54;;;;;;;;;;;;;;;17.21;45.65;101248.09;5073483;28;1017;-60
2022/04/13 03:27:20;;;;;;;;;;;;;;;17.21;45.58;101252.75;5075821;28;1215;-60
2022/04/13 03:29:45;;;;;;;;;;;;;;;17.25;45.43;101243.72;5074680;28;818;-60
2022/04/13 03:32:11;;;;;;;;;;;;;;;17.20;45.59;101256.59;5074792;28;826;-60
2022/04/13 03:34:36;;;;;;;;;;;;;;;17.13;45.49;101259.56;5075229;28;785;-60
2022/04/13 03:37:02;;;;;;;;;;;;;;;17.11;45.66;101259.03;5075863;28;1910;-60
2022/04/13 03:39:28;;;;;;;;;;;;;;;17.17;45.56;101268.13;5075960;28;829;-60
2022/04/13 03:41:53;;;;;;;;;;;;;;;17.10;45.20;101263.69;5076036;28;1139;-60
2022/04/13 03:44:19;;;;;;;;;;;;;;;17.06;45.48;101273.53;5076236;28;872;-60
2022/04/13 03:46:44;;;;;;;;;;;;;;;17.02;45.52;101255.94;5071981;28;871;-61
2022/04/13 03:49:09;;;;;;;;;;;;;;;17.05;45.06;101255.38;5055119;28;845;-60
2022/04/13 03:51:36;;;;;;;;;;;;;;;16.96;45.29;101256.16;5071699;28;1367;-63
2022/04/13 03:54:01;;;;;;;;;;;;;;;16.95;45.09;101266.31;5076400;28;840;-61
2022/04/13 03:56:28;;;;;;;;;;;;;;;16.94;45.19;101264.66;5070669;28;793;-60
2022/04/13 03:58:54;;;;;;;;;;;;;;;16.99;44.96;101272.13;5075817;28;1921;-61
2022/04/13 04:01:19;;;;;;;;;;;;;;;16.96;45.05;101268.00;5075603;28;1457;-59
2022/04/13 04:03:45;;;;;;;;;;;;;;;16.99;45.05;101267.44;5074929;28;1138;-60
2022/04/13 04:06:10;;;;;;;;;;;;;;;16.97;45.39;101266.91;5075611;28;1301;-59
2022/04/13 04:08:35;;;;;;;;;;;;;;;16.98;45.31;101275.97;5068775;28;845;-60
2022/04/13 04:11:01;;;;;;;;;;;;;;;16.98;45.13;101276.78;5073356;28;794;-59
2022/04/13 04:13:26;;;;;;;;;;;;;;;16.92;45.20;101284.16;5075747;28;822;-57
2022/04/13 04:15:52;;;;;;;;;;;;;;;16.89;45.26;101278.38;5076557;28;988;-61
2022/04/13 04:18:17;;;;;;;;;;;;;;;16.87;45.06;101275.03;5079070;28;1901;-60
2022/04/13 04:20:43;;;;;;;;;;;;;;;16.88;44.95;101295.91;5078766;28;766;-61
2022/04/13 04:23:08;;;;;;;;;;;;;;;16.88;45.06;101287.66;5079702;28;791;-60
2022/04/13 04:25:34;;;;;;;;;;;;;;;16.88;44.95;101273.94;5078522;28;925;-60
2022/04/13 04:27:59;;;;;;;;;;;;;;;16.88;44.92;101273.94;5079333;28;834;-61
2022/04/13 04:30:25;;;;;;;;;;;;;;;16.88;45.40;101287.66;5079551;28;733;-61
2022/04/13 04:32:50;;;;;;;;;;;;;;;16.82;45.49;101294.22;5078876;28;1036;-59
2022/04/13 04:35:15;;;;;;;;;;;;;;;16.86;45.18;101281.63;5079331;28;842;-59
2022/04/13 04:37:41;;;;;;;;;;;;;;;16.86;45.28;101296.19;5079158;28;1910;-59
2022/04/13 04:40:06;;;;;;;;;;;;;;;16.89;45.38;101301.16;5073708;28;833;-58
2022/04/13 04:42:42;;;;;;;;;;;;;;;16.88;45.30;101282.19;5078941;28;814;-59
2022/04/13 04:45:08;;;;;;;;;;;;;;;16.87;45.45;101297.00;5078152;28;885;-59
2022/04/13 04:47:33;;;;;;;;;;;;;;;16.90;45.40;101291.00;5076294;28;825;-60
2022/04/13 04:49:59;;;;;;;;;;;;;;;16.97;45.40;101294.38;5078725;28;1028;-60
2022/04/13 04:52:24;;;;;;;;;;;;;;;17.04;45.50;101297.72;5079014;28;729;-58
2022/04/13 04:54:50;;;;;;;;;;;;;;;17.05;45.41;101304.03;5075434;28;995;-60
2022/04/13 04:57:15;;;;;;;;;;;;;;;17.00;45.60;101306.72;5078639;28;1906;-60
2022/04/13 04:59:41;;;;;;;;;;;;;;;16.96;45.53;101309.19;5078577;28;864;-62
2022/04/13 05:02:06;;;;;;;;;;;;;;;16.96;45.49;101314.69;5078907;28;862;-61
2022/04/13 05:04:31;;;;;;;;;;;;;;;16.98;45.53;101315.25;5079185;28;761;-60
2022/04/13 05:06:57;;;;;;;;;;;;;;;16.95;45.60;101321.25;5078495;28;798;-60
2022/04/13 05:09:24;;;;;;;;;;;;;;;16.87;45.49;101314.31;5077407;28;859;-58
2022/04/13 05:11:49;;;;;;;;;;;;;;;16.89;45.62;101322.31;5078068;28;896;-59
2022/04/13 05:14:16;;;;;;;;;;;;;;;16.89;45.45;101325.06;5078819;28;830;-59
2022/04/13 05:16:41;;;;;;;;;;;;;;;16.88;45.16;101326.97;5078434;28;1920;-60
2022/04/13 05:19:07;;;;;;;;;;;;;;;16.83;45.48;101317.84;5077908;28;1080;-61
2022/04/13 05:21:32;;;;;;;;;;;;;;;16.84;45.15;101330.47;5077869;28;1278;-59
2022/04/13 05:23:58;;;;;;;;;;;;;;;16.85;45.25;101324.72;5072793;28;810;-59
2022/04/13 05:26:23;;;;;;;;;;;;;;;16.85;45.32;101324.72;5077427;28;1014;-60
2022/04/13 05:28:49;;;;;;;;;;;;;;;16.87;45.44;101316.22;5078491;28;781;-60
2022/04/13 05:31:14;;;;;;;;;;;;;;;16.86;45.22;101328.31;5078394;28;813;-60
2022/04/13 05:33:40;;;;;;;;;;;;;;;16.87;45.10;101316.22;5059388;28;898;-61
2022/04/13 05:36:05;;;;;;;;;;;;;;;16.91;45.44;101320.13;5077487;28;809;-60
2022/04/13 05:38:31;;;;;;;;;;;;;;;16.90;45.34;101318.47;5076082;28;1906;-61
2022/04/13 05:40:56;;;;;;;;;;;;;;;16.89;45.16;101327.81;5081919;28;886;-59
2022/04/13 05:43:22;;;;;;;;;;;;;;;16.95;45.26;101331.44;5077934;28;850;-61
2022/04/13 05:45:47;;;;;;;;;;;;;;;16.91;45.21;101336.63;5078079;28;846;-62
2022/04/13 05:48:13;;;;;;;;;;;;;;;16.91;45.24;101333.88;5077539;28;854;-60
2022/04/13 05:50:38;;;;;;;;;;;;;;;16.89;45.22;101331.38;5053144;28;894;-60
2022/04/13 05:53:04;;;;;;;;;;;;;;;16.90;45.33;101329.47;5077697;28;861;-61
2022/04/13 05:55:29;;;;;;;;;;;;;;;16.90;45.29;101333.06;5077163;28;919;-62
2022/04/13 05:57:55;;;;;;;;;;;;;;;16.95;45.37;101332.25;5077542;28;1985;-61
2022/04/13 06:00:21;;;;;;;;;;;;;;;16.96;45.34;101339.41;5077653;28;766;-60
2022/04/13 06:02:46;;;;;;;;;;;;;;;16.95;45.16;101332.25;5076987;28;853;-60
2022/04/13 06:05:12;;;;;;;;;;;;;;;16.93;45.35;101335.25;5077759;28;850;-60
2022/04/13 06:07:38;;;;;;;;;;;;;;;17.13;45.08;101332.94;5077281;28;773;-59
2022/04/13 06:10:05;;;;;;;;;;;;;;;17.53;44.86;101331.53;5075916;28;787;-60
2022/04/13 06:12:31;;;;;;;;;;;;;;;17.88;44.35;101338.31;5077291;28;881;-60
2022/04/13 06:15:14;;;;;;;;;;;;;;;18.15;44.07;101335.44;5077472;28;851;-58
2022/04/13 06:17:40;;;;;;;;;;;;;;;18.20;43.87;101340.13;5076988;28;1985;-59
2022/04/13 06:20:06;;;;;;;;;;;;;;;18.01;44.36;101332.34;5076349;28;1115;-60
2022/04/13 06:22:32;;;;;;;;;;;;;;;17.67;44.44;101335.47;5076571;28;1230;-60
2022/04/13 06:25:00;;;;;;;;;;;;;;;17.30;43.96;101336.34;5071915;28;1192;-60
2022/04/13 06:27:26;;;;;;;;;;;;;;;17.01;43.11;101333.97;5075177;28;1234;-61
2022/04/13 06:29:52;;;;;;;;;;;;;;;16.72;41.87;101334.22;5076650;28;1306;-61
2022/04/13 06:32:18;;;;;;;;;;;;;;;16.58;41.52;101353.06;5077093;28;849;-60
2022/04/13 06:34:43;;;;;;;;;;;;;;;16.32;41.04;101324.50;5077231;28;801;-63
2022/04/13 06:37:09;;;;;;;;;;;;;;;16.37;41.05;101349.28;5077250;28;1913;-62
2022/04/13 06:39:34;;;;;;;;;;;;;;;16.41;42.02;101344.91;5072446;28;793;-60
2022/04/13 06:41:59;;;;;;;;;;;;;;;16.75;44.62;101332.88;5076566;28;965;-62
2022/04/13 06:44:25;;;;;;;;;;;;;;;17.59;46.32;101338.75;5076748;28;1481;-60
2022/04/13 06:46:50;;;;;;;;;;;;;;;18.44;44.20;101333.03;5077065;28;788;-62
2022/04/13 06:49:16;;;;;;;;;;;;;;;18.48;44.02;101336.03;5076608;28;926;-61
2022/04/13 06:51:42;;;;;;;;;;;;;;;18.20;44.28;101340.13;5075637;28;1032;-63
2022/04/13 06:54:07;;;;;;;;;;;;;;;17.73;44.53;101336.34;5075121;28;989;-61
2022/04/13 06:56:33;;;;;;;;;;;;;;;17.34;44.23;101340.22;5076630;28;1076;-61
2022/04/13 06:58:58;;;;;;;;;;;;;;;17.05;43.32;101337.00;5076764;28;1976;-60
2022/04/13 07:01:24;;;;;;;;;;;;;;;16.77;41.96;101331.53;5076528;28;748;-60
2022/04/13 07:03:49;;;;;;;;;;;;;;;16.62;41.57;101339.66;5076771;28;843;-61
2022/04/13 07:06:15;;;;;;;;;;;;;;;16.47;40.97;101342.25;5071670;28;862;-61
2022/04/13 07:08:41;;;;;;;;;;;;;;;16.43;41.45;101341.91;5076686;28;967;-63
2022/04/13 07:11:06;;;;;;;;;;;;;;;16.51;42.40;101335.13;5075939;28;833;-62
2022/04/13 07:13:32;;;;;;;;;;;;;;;16.70;43.50;101341.06;5075884;28;968;-63
2022/04/13 07:15:57;;;;;;;;;;;;;;;16.82;44.47;101339.00;5075777;28;1277;-61
2022/04/13 07:18:23;;;;;;;;;;;;;;;17.00;45.30;101337.81;5075732;28;1890;-60
2022/04/13 07:20:48;;;;;;;;;;;;;;;17.06;45.75;101342.22;5075861;28;837;-62
2022/04/13 07:23:14;;;;;;;;;;;;;;;17.07;45.77;101340.34;5076085;28;789;-64
2022/04/13 07:25:39;;;;;;;;;;;;;;;17.10;46.02;101345.28;5071424;28;738;-62
2022/04/13 07:28:05;;;;;;;;;;;;;;;17.18;46.03;101349.47;5075803;28;1092;-62
2022/04/13 07:30:31;;;;;;;;;;;;;;;17.28;46.04;101352.31;5075515;28;1203;-61
2022/04/13 07:33:01;;;;;;;;;;;;;;;17.30;45.95;101343.78;5072180;28;1017;-63
2022/04/13 07:35:27;;;;;;;;;;;;;;;17.34;45.81;101353.97;5073557;28;1192;-62
2022/04/13 07:37:52;;;;;;;;;;;;;;;17.37;46.22;101347.94;5076075;28;1905;-62
2022/04/13 07:40:18;;;;;;;;;;;;;;;17.41;45.91;101354.56;5075421;28;1195;-62
2022/04/13 07:42:43;;;;;;;;;;;;;;;17.39;46.08;101353.16;5075619;28;1202;-62
2022/04/13 07:45:09;;;;;;;;;;;;;;;17.45;45.92;101352.94;5074686;28;1179;-63
2022/04/13 07:47:34;;;;;;;;;;;;;;;17.39;46.26;101359.53;5075773;28;1199;-60
2022/04/13 07:49:59;;;;;;;;;;;;;;;17.44;45.65;101345.78;5076700;28;1099;-61
2022/04/13 07:52:25;;;;;;;;;;;;;;;17.58;45.45;101350.81;5079272;28;1122;-63
2022/04/13 07:54:51;;;;;;;;;;;;;;;17.54;45.67;101346.94;5079446;28;1037;-62
2022/04/13 07:57:16;;;;;;;;;;;;;;;17.55;45.67;101343.13;5079125;28;1902;-62
2022/04/13 07:59:42;;;;;;;;;;;;;;;17.57;45.17;101338.16;5079513;28;1222;-62
2022/04/13 08:02:07;;;;;;;;;;;;;;;17.67;45.37;101359.38;5079713;28;1076;-61
2022/04/13 08:04:33;;;;;;;;;;;;;;;17.65;45.28;101345.91;5079806;28;1226;-64
2022/04/13 08:06:59;;;;;;;;;;;;;;;17.57;45.42;101350.00;5079481;28;1296;-60
2022/04/13 08:09:24;;;;;;;;;;;;;;;17.55;45.47;101348.63;5077843;28;1210;-60
2022/04/13 08:11:52;;;;;;;;;;;;;;;17.49;45.57;101341.41;5079450;28;1242;-62
2022/04/13 08:14:20;;;;;;;;;;;;;;;17.54;45.41;101344.19;5079171;28;1225;-61
2022/04/13 08:16:46;;;;;;;;;;;;;;;17.58;45.16;101345.31;5079423;28;1914;-59
2022/04/13 08:19:11;;;;;;;;;;;;;;;17.59;45.50;101344.25;5079803;28;786;-62
2022/04/13 08:21:38;;;;;;;;;;;;;;;17.55;45.41;101329.38;5080112;28;785;-62
2022/04/13 08:24:04;;;;;;;;;;;;;;;17.54;45.25;101338.69;5078926;28;779;-62
2022/04/13 08:26:30;;;;;;;;;;;;;;;17.54;45.36;101327.69;5074890;28;1131;-62
2022/04/13 08:28:55;;;;;;;;;;;;;;;17.55;45.33;101321.13;5078702;28;1186;-63
2022/04/13 08:31:20;;;;;;;;;;;;;;;17.63;45.12;101337.13;5079232;28;1215;-62
2022/04/13 08:33:46;;;;;;;;;;;;;;;17.60;45.11;101324.72;5060306;28;1333;-63
2022/04/13 08:36:12;;;;;;;;;;;;;;;17.59;44.93;101331.31;5077772;28;1239;-62
2022/04/13 08:38:38;;;;;;;;;;;;;;;17.59;45.02;101320.31;5078671;28;1917;-63
2022/04/13 08:41:06;;;;;;;;;;;;;;;17.57;45.06;101328.00;5076657;28;1238;-63
2022/04/13 08:43:32;;;;;;;;;;;;;;;17.58;45.19;101326.06;5059695;28;1297;-63
2022/04/13 08:46:00;;;;;;;;;;;;;;;17.66;44.83;101331.06;5058547;28;1204;-61
2022/04/13 08:48:26;;;;;;;;;;;;;;;17.68;44.71;101323.38;5078003;28;1265;-61
2022/04/13 08:51:03;;;;;;;;;;;;;;;17.71;44.67;101322.84;5078307;28;1253;-65
2022/04/13 08:53:29;;;;;;;;;;;;;;;17.69;44.67;101327.78;5061106;28;818;-64
2022/04/13 08:55:55;;;;;;;;;;;;;;;17.71;44.55;101314.59;5078450;28;845;-63
2022/04/13 08:58:36;;;;;;;;;;;;;;;17.73;44.55;101308.84;5078875;28;1910;-62
2022/04/13 09:01:02;;;;;;;;;;;;;;;17.72;44.62;101307.16;5077634;28;883;-61
2022/04/13 09:03:36;;;;;;;;;;;;;;;17.73;44.66;101295.91;5078803;28;856;-63
2022/04/13 09:06:01;;;;;;;;;;;;;;;17.77;44.53;101302.50;5061058;28;831;-62
2022/04/13 09:08:42;;;;;;;;;;;;;;;17.82;44.40;101298.94;5060879;28;846;-63
2022/04/13 09:11:07;;;;;;;;;;;;;;;17.68;44.41;101293.13;5072789;28;805;-63
2022/04/13 09:13:33;;;;;;;;;;;;;;;17.44;44.58;101293.56;5074759;28;797;-59
2022/04/13 09:15:58;;;;;;;;;;;;;;;17.24;43.91;101296.19;5078377;28;1093;-62
2022/04/13 09:18:24;;;;;;;;;;;;;;;16.99;42.78;101288.63;5078633;28;1972;-65
2022/04/13 09:20:50;;;;;;;;;;;;;;;16.75;41.99;101289.75;5078619;28;810;-63
2022/04/13 09:23:15;;;;;;;;;;;;;;;16.68;41.53;101282.84;5078363;28;889;-62
2022/04/13 09:25:41;;;;;;;;;;;;;;;16.60;41.44;101282.22;5055904;28;848;-65
2022/04/13 09:28:06;;;;;;;;;;;;;;;16.62;42.14;101295.72;5060774;28;747;-63
2022/04/13 09:30:32;;;;;;;;;;;;;;;16.84;43.43;101292.03;5078435;28;847;-64
2022/04/13 09:32:57;;;;;;;;;;;;;;;17.17;45.49;101284.63;5078172;28;818;-64
2022/04/13 09:35:23;;;;;;;;;;;;;;;17.77;45.41;101283.25;5060442;28;841;-62
2022/04/13 09:37:48;;;;;;;;;;;;;;;18.19;44.13;101277.91;5078406;28;1980;-63
2022/04/13 09:40:50;;;;;;;;;;;;;;;18.54;43.58;101268.06;5075201;28;840;-64
2022/04/13 09:43:16;;;;;;;;;;;;;;;18.46;43.24;101264.72;4977030;28;1239;-62
2022/04/13 09:45:43;;;;;;;;;;;;;;;18.02;43.43;101269.88;5057610;28;1135;-65
2022/04/13 09:48:10;;;;;;;;;;;;;;;17.55;43.28;101257.88;5078034;28;768;-64
2022/04/13 09:50:37;;;;;;;;;;;;;;;17.25;43.02;101262.09;5077274;28;1079;-63
2022/04/13 09:53:05;;;;;;;;;;;;;;;17.03;42.25;101263.09;5070582;28;974;-62
2022/04/13 09:55:32;;;;;;;;;;;;;;;16.82;41.60;101258.53;5077612;28;935;-65
2022/04/13 09:58:04;;;;;;;;;;;;;;;16.63;40.92;101258.91;5077442;28;1979;-65
2022/04/13 10:00:30;;;;;;;;;;;;;;;16.50;40.66;101271.16;5077491;28;936;-65
2022/04/13 10:02:56;;;;;;;;;;;;;;;16.46;40.72;101267.28;5076871;28;1088;-65
2022/04/13 10:05:22;;;;;;;;;;;;;;;16.54;41.48;101255.00;5058613;28;1177;-64
2022/04/13 10:08:06;;;;;;;;;;;;;;;16.68;42.91;101261.69;5077428;28;794;-64
2022/04/13 10:10:31;;;;;;;;;;;;;;;16.80;43.85;101255.19;5065449;28;962;-65
2022/04/13 10:12:57;;;;;;;;;;;;;;;16.95;44.39;101260.81;5077277;28;797;-65
2022/04/13 10:15:22;;;;;;;;;;;;;;;17.01;44.85;101258.94;5077931;28;964;-64
2022/04/13 10:17:48;;;;;;;;;;;;;;;17.04;45.21;101259.25;5070113;28;1976;-64
2022/04/13 10:20:13;;;;;;;;;;;;;;;17.12;45.39;101259.84;5077585;28;802;-65
2022/04/13 10:22:59;;;;;;;;;;;;;;;17.15;45.45;101257.38;5077381;28;857;-67
2022/04/13 10:25:28;;;;;;;;;;;;;;;17.21;45.68;101252.75;5067708;28;1835;-66
2022/04/13 10:27:57;;;;;;;;;;;;;;;17.27;45.55;101255.25;5076640;28;805;-65
2022/04/13 10:30:32;;;;;;;;;;;;;;;17.24;45.86;101254.97;5076841;28;841;-66
2022/04/13 10:32:59;;;;;;;;;;;;;;;17.28;45.61;101247.84;5077178;28;876;-65
2022/04/13 10:35:24;;;;;;;;;;;;;;;17.28;45.94;101250.59;5077260;28;758;-67
2022/04/13 10:37:51;;;;;;;;;;;;;;;17.32;45.84;101248.97;5076723;28;1985;-66
2022/04/13 10:40:18;;;;;;;;;;;;;;;17.34;45.92;101244.03;5074867;28;1020;-65
2022/04/13 10:42:44;;;;;;;;;;;;;;;17.43;45.44;101261.69;5058600;28;805;-66
2022/04/13 10:45:10;;;;;;;;;;;;;;;17.34;45.76;101249.53;5058955;28;826;-66
2022/04/13 10:47:40;;;;;;;;;;;;;;;17.37;45.64;101256.41;5058649;28;866;-66
2022/04/13 10:50:06;;;;;;;;;;;;;;;17.37;45.52;101251.72;5077040;28;1000;-67
2022/04/13 10:52:50;;;;;;;;;;;;;;;17.37;45.48;101248.97;5076495;28;745;-66
2022/04/13 10:55:16;;;;;;;;;;;;;;;17.41;45.38;101252.84;5074792;28;1115;-66
2022/04/13 10:57:45;;;;;;;;;;;;;;;17.40;45.35;101248.47;5057510;28;1905;-65
2022/04/13 11:00:11;;;;;;;;;;;;;;;17.38;45.54;101256.13;5076207;28;1231;-65
2022/04/13 11:02:57;;;;;;;;;;;;;;;17.43;45.43;101244.34;5076221;28;1238;-64
2022/04/13 11:05:22;;;;;;;;;;;;;;;17.49;45.32;101243.28;5068678;28;1753;-63
2022/04/13 11:07:50;;;;;;;;;;;;;;;17.48;45.29;101229.81;5070953;28;857;-65
2022/04/13 11:10:16;;;;;;;;;;;;;;;17.45;45.16;101239.41;5052077;28;868;-65
2022/04/13 11:12:42;;;;;;;;;;;;;;;17.47;45.24;101239.13;5076338;28;825;-65
2022/04/13 11:15:07;;;;;;;;;;;;;;;17.53;45.13;101238.91;5076429;28;750;-57
2022/04/13 11:17:33;;;;;;;;;;;;;;;17.52;45.07;101241.91;5075851;28;1985;-67
2022/04/13 11:20:14;;;;;;;;;;;;;;;17.53;45.08;101235.31;5057592;28;1223;-63
2022/04/13 11:22:39;;;;;;;;;;;;;;;17.47;45.23;101233.63;5075404;28;1020;-65
2022/04/13 11:25:05;;;;;;;;;;;;;;;17.48;45.07;101240.81;5073069;28;847;-64
2022/04/13 11:27:49;;;;;;;;;;;;;;;17.50;45.01;101228.44;5076135;28;834;-62
2022/04/13 11:30:15;;;;;;;;;;;;;;;17.44;44.90;101221.25;5070630;28;766;-60
2022/04/13 11:32:40;;;;;;;;;;;;;;;17.47;44.83;101225.38;5076077;28;835;-62
2022/04/13 11:35:06;;;;;;;;;;;;;;;17.43;45.15;101217.69;5052526;28;862;-62
2022/04/13 11:37:34;;;;;;;;;;;;;;;17.57;44.64;101222.66;5076026;28;1972;-62
2022/04/13 11:40:05;;;;;;;;;;;;;;;17.59;44.73;101218.56;5074744;28;841;-65
2022/04/13 11:42:34;;;;;;;;;;;;;;;17.62;44.54;101203.44;5075937;28;865;-65
2022/04/13 11:45:03;;;;;;;;;;;;;;;17.57;44.41;101215.28;5076257;28;802;-64
2022/04/13 11:47:39;;;;;;;;;;;;;;;17.63;44.63;101216.13;5073260;28;895;-62
2022/04/13 11:50:24;;;;;;;;;;;;;;;17.64;44.24;101211.44;5076848;28;864;-64
2022/04/13 11:52:50;;;;;;;;;;;;;;;17.56;44.30;101208.09;5061669;28;1340;-64
2022/04/13 11:55:19;;;;;;;;;;;;;;;17.56;44.50;101207.28;5081248;28;1096;-64
2022/04/13 11:58:03;;;;;;;;;;;;;;;17.57;44.70;101203.41;5075992;28;1981;-63
2022/04/13 12:00:38;;;;;;;;;;;;;;;17.61;44.31;101212.78;5074783;28;921;-65
2022/04/13 12:03:09;;;;;;;;;;;;;;;17.61;44.54;101201.78;5070474;28;1273;-64
2022/04/13 12:05:36;;;;;;;;;;;;;;;17.61;44.49;101207.28;5078996;28;1195;-64
2022/04/13 12:08:01;;;;;;;;;;;;;;;17.66;44.32;101215.56;5072770;28;1293;-66
2022/04/13 12:10:34;;;;;;;;;;;;;;;17.55;44.55;101205.63;5073470;28;1258;-66
2022/04/13 12:13:03;;;;;;;;;;;;;;;17.54;44.69;101196.53;5072829;28;1013;-64
2022/04/13 12:15:39;;;;;;;;;;;;;;;17.47;44.54;101195.97;5056852;28;1258;-64
2022/04/13 12:18:08;;;;;;;;;;;;;;;17.48;44.68;101192.13;5073893;28;1897;-63
2022/04/13 12:20:34;;;;;;;;;;;;;;;17.55;44.63;101200.13;5050714;28;1239;-63
2022/04/13 12:23:13;;;;;;;;;;;;;;;17.57;44.46;101192.41;5071745;28;1238;-65
2022/04/13 12:25:45;;;;;;;;;;;;;;;17.55;44.38;101198.19;5069194;28;1032;-64
2022/04/13 12:28:10;;;;;;;;;;;;;;;17.53;44.50;101183.91;5075203;28;1270;-63
2022/04/13 12:30:36;;;;;;;;;;;;;;;17.62;44.37;101187.75;5074713;28;1024;-65
2022/04/13 12:33:11;;;;;;;;;;;;;;;17.55;44.25;101175.38;5075330;28;1502;-65
2022/04/13 12:35:46;;;;;;;;;;;;;;;17.51;44.38;101171.53;5075558;28;1398;-64
2022/04/13 12:38:19;;;;;;;;;;;;;;;17.50;44.49;101167.09;5075851;28;1978;-63
2022/04/13 12:40:45;;;;;;;;;;;;;;;17.55;44.25;101181.69;5073101;28;1006;-66
2022/04/13 12:43:10;;;;;;;;;;;;;;;17.52;44.40;101178.69;5071442;28;1305;-63
2022/04/13 12:45:36;;;;;;;;;;;;;;;17.49;44.45;101169.03;5072628;28;889;-64
2022/04/13 12:48:04;;;;;;;;;;;;;;;17.49;44.39;101165.44;5078959;28;873;-63
2022/04/13 12:50:30;;;;;;;;;;;;;;;17.47;44.49;101170.41;5059741;28;1347;-64